createdAt,value
2023-05-13T00:00:54.528Z,14.94
2023-05-13T00:01:54.496Z,14.94
2023-05-13T00:02:54.540Z,14.92
2023-05-13T00:03:54.506Z,14.82
2023-05-13T00:04:54.409Z,14.82
2023-05-13T00:05:54.412Z,14.85
2023-05-13T00:06:54.367Z,14.69
2023-05-13T00:07:54.315Z,14.65
2023-05-13T00:08:54.345Z,14.68
2023-05-13T00:09:54.267Z,14.69
2023-05-13T00:10:54.269Z,14.70
2023-05-13T00:11:54.189Z,14.66
2023-05-13T00:12:54.157Z,14.70
2023-05-13T00:13:54.136Z,14.65
2023-05-13T00:14:54.148Z,14.66
2023-05-13T00:15:54.093Z,14.65
2023-05-13T00:16:54.052Z,14.84
2023-05-13T00:17:54.051Z,14.86
2023-05-13T00:18:54.034Z,14.69
2023-05-13T00:19:53.986Z,14.70
2023-05-13T00:20:53.904Z,14.69
2023-05-13T00:21:53.878Z,14.68
2023-05-13T00:22:53.838Z,14.68
2023-05-13T00:23:53.811Z,14.65
2023-05-13T00:24:53.828Z,14.59
2023-05-13T00:25:53.749Z,14.59
2023-05-13T00:26:53.716Z,14.60
2023-05-13T00:27:53.677Z,14.62
2023-05-13T00:28:53.653Z,14.59
2023-05-13T00:29:53.653Z,14.63
2023-05-13T00:30:54.005Z,14.59
2023-05-13T00:31:54.352Z,14.55
2023-05-13T00:32:53.579Z,14.47
2023-05-13T00:33:53.491Z,14.44
2023-05-13T00:34:53.461Z,14.33
2023-05-13T00:35:53.563Z,14.40
2023-05-13T00:36:53.404Z,14.35
2023-05-13T00:37:53.377Z,14.30
2023-05-13T00:38:53.334Z,14.29
2023-05-13T00:39:53.312Z,14.25
2023-05-13T00:40:53.273Z,14.22
2023-05-13T00:41:53.293Z,14.10
2023-05-13T00:42:53.215Z,14.10
2023-05-13T00:43:53.175Z,14.07
2023-05-13T00:44:53.174Z,14.05
2023-05-13T00:45:53.142Z,13.99
2023-05-13T00:46:53.142Z,13.96
2023-05-13T00:47:53.107Z,13.97
2023-05-13T00:48:53.038Z,13.92
2023-05-13T00:49:53.000Z,13.86
2023-05-13T00:50:52.954Z,13.78
2023-05-13T00:51:52.931Z,13.70
2023-05-13T00:52:52.976Z,13.68
2023-05-13T00:53:52.864Z,13.62
2023-05-13T00:54:52.891Z,13.74
2023-05-13T00:55:52.848Z,13.77
2023-05-13T00:56:52.766Z,13.74
2023-05-13T00:57:52.740Z,13.67
2023-05-13T00:58:52.712Z,13.70
2023-05-13T00:59:52.731Z,13.74
2023-05-13T01:00:52.727Z,13.89
2023-05-13T01:01:52.624Z,13.86
2023-05-13T01:02:52.647Z,13.75
2023-05-13T01:03:52.562Z,13.78
2023-05-13T01:04:52.517Z,13.71
2023-05-13T01:05:52.552Z,13.77
2023-05-13T01:06:52.453Z,13.70
2023-05-13T01:07:52.420Z,13.75
2023-05-13T01:08:52.387Z,13.74
2023-05-13T01:09:52.358Z,13.75
2023-05-13T01:10:52.334Z,13.77
2023-05-13T01:11:52.356Z,13.77
2023-05-13T01:12:52.266Z,13.70
2023-05-13T01:13:52.233Z,13.75
2023-05-13T01:14:52.202Z,13.67
2023-05-13T01:15:52.161Z,13.70
2023-05-13T01:16:52.236Z,13.71
2023-05-13T01:17:52.128Z,13.67
2023-05-13T01:18:52.109Z,13.60
2023-05-13T01:19:52.043Z,13.60
2023-05-13T01:20:52.000Z,13.54
2023-05-13T01:21:52.050Z,13.59
2023-05-13T01:22:51.944Z,13.54
2023-05-13T01:23:51.980Z,13.59
2023-05-13T01:24:51.877Z,13.67
2023-05-13T01:25:51.840Z,13.68
2023-05-13T01:26:51.806Z,13.71
2023-05-13T01:27:51.835Z,13.75
2023-05-13T01:28:51.749Z,13.77
2023-05-13T01:29:51.737Z,13.70
2023-05-13T01:30:51.751Z,13.77
2023-05-13T01:31:51.654Z,13.71
2023-05-13T01:32:51.783Z,13.70
2023-05-13T01:33:51.588Z,13.65
2023-05-13T01:34:51.591Z,13.60
2023-05-13T01:35:51.526Z,13.63
2023-05-13T01:36:51.509Z,13.60
2023-05-13T01:37:51.519Z,13.75
2023-05-13T01:38:51.485Z,13.74
2023-05-13T01:39:51.405Z,13.67
2023-05-13T01:40:51.364Z,13.65
2023-05-13T01:41:51.356Z,13.62
2023-05-13T01:42:51.320Z,13.62
2023-05-13T01:43:51.270Z,13.60
2023-05-13T01:44:51.292Z,13.63
2023-05-13T01:45:51.199Z,13.68
2023-05-13T01:46:51.222Z,13.59
2023-05-13T01:47:51.168Z,13.56
2023-05-13T01:48:51.112Z,13.50
2023-05-13T01:49:51.848Z,13.53
2023-05-13T01:50:51.039Z,13.50
2023-05-13T01:51:51.011Z,13.56
2023-05-13T01:52:50.996Z,13.60
2023-05-13T01:53:50.956Z,13.68
2023-05-13T01:54:50.985Z,13.65
2023-05-13T01:55:50.900Z,13.54
2023-05-13T01:56:50.862Z,13.56
2023-05-13T01:57:50.826Z,13.49
2023-05-13T01:58:50.788Z,13.44
2023-05-13T01:59:50.758Z,13.30
2023-05-13T02:00:50.778Z,13.27
2023-05-13T02:01:50.779Z,13.25
2023-05-13T02:02:50.719Z,13.30
2023-05-13T02:03:50.690Z,13.27
2023-05-13T02:04:50.603Z,13.12
2023-05-13T02:05:50.619Z,13.23
2023-05-13T02:06:50.530Z,13.25
2023-05-13T02:07:50.506Z,13.33
2023-05-13T02:08:50.467Z,13.30
2023-05-13T02:09:50.435Z,13.30
2023-05-13T02:10:50.419Z,13.35
2023-05-13T02:11:50.436Z,13.27
2023-05-13T02:12:50.348Z,13.30
2023-05-13T02:13:50.313Z,13.27
2023-05-13T02:14:50.276Z,13.20
2023-05-13T02:15:50.271Z,13.25
2023-05-13T02:16:50.562Z,13.16
2023-05-13T02:17:50.204Z,13.20
2023-05-13T02:18:50.218Z,13.28
2023-05-13T02:19:50.124Z,13.13
2023-05-13T02:20:50.090Z,13.28
2023-05-13T02:21:50.060Z,13.22
2023-05-13T02:22:50.083Z,13.15
2023-05-13T02:23:50.004Z,13.18
2023-05-13T02:24:49.961Z,13.09
2023-05-13T02:25:49.933Z,13.11
2023-05-13T02:26:49.904Z,13.11
2023-05-13T02:27:49.874Z,13.09
2023-05-13T02:28:49.896Z,13.20
2023-05-13T02:29:49.798Z,13.20
2023-05-13T02:30:49.765Z,13.18
2023-05-13T02:31:49.762Z,13.13
2023-05-13T02:32:50.543Z,13.19
2023-05-13T02:33:49.704Z,13.12
2023-05-13T02:34:49.694Z,13.19
2023-05-13T02:35:49.656Z,13.35
2023-05-13T02:36:49.590Z,13.28
2023-05-13T02:37:49.538Z,13.38
2023-05-13T02:38:49.585Z,13.44
2023-05-13T02:39:49.484Z,13.46
2023-05-13T02:40:49.445Z,13.47
2023-05-13T02:41:49.414Z,13.46
2023-05-13T02:42:49.378Z,13.47
2023-05-13T02:43:49.345Z,13.53
2023-05-13T02:44:49.387Z,13.46
2023-05-13T02:45:49.337Z,13.50
2023-05-13T02:46:49.267Z,13.54
2023-05-13T02:47:49.259Z,13.49
2023-05-13T02:48:49.210Z,13.49
2023-05-13T02:49:49.221Z,13.37
2023-05-13T02:50:49.139Z,13.31
2023-05-13T02:51:49.104Z,13.31
2023-05-13T02:52:49.072Z,13.27
2023-05-13T02:53:49.042Z,13.20
2023-05-13T02:54:49.145Z,13.22
2023-05-13T02:55:49.050Z,13.37
2023-05-13T02:56:48.928Z,13.23
2023-05-13T02:57:48.908Z,13.28
2023-05-13T02:58:48.875Z,13.35
2023-05-13T02:59:48.862Z,13.35
2023-05-13T03:00:48.804Z,13.30
2023-05-13T03:01:48.873Z,13.35
2023-05-13T03:02:48.872Z,13.33
2023-05-13T03:03:48.805Z,13.23
2023-05-13T03:04:48.683Z,13.27
2023-05-13T03:05:48.661Z,13.28
2023-05-13T03:06:48.683Z,13.25
2023-05-13T03:07:48.593Z,13.22
2023-05-13T03:08:48.580Z,13.13
2023-05-13T03:09:48.553Z,13.23
2023-05-13T03:10:48.493Z,13.25
2023-05-13T03:11:48.556Z,13.11
2023-05-13T03:12:48.430Z,13.15
2023-05-13T03:13:48.390Z,13.27
2023-05-13T03:14:48.365Z,13.31
2023-05-13T03:15:48.366Z,13.28
2023-05-13T03:16:48.291Z,13.25
2023-05-13T03:17:48.359Z,13.25
2023-05-13T03:18:48.276Z,13.30
2023-05-13T03:19:48.203Z,13.27
2023-05-13T03:20:48.166Z,13.13
2023-05-13T03:21:48.128Z,13.22
2023-05-13T03:22:48.104Z,13.31
2023-05-13T03:23:48.142Z,13.28
2023-05-13T03:24:48.040Z,13.33
2023-05-13T03:25:48.004Z,13.27
2023-05-13T03:26:47.971Z,13.19
2023-05-13T03:27:47.936Z,13.27
2023-05-13T03:28:47.906Z,13.33
2023-05-13T03:29:47.930Z,13.38
2023-05-13T03:30:47.847Z,13.28
2023-05-13T03:31:47.853Z,13.33
2023-05-13T03:32:47.801Z,13.38
2023-05-13T03:33:47.751Z,13.41
2023-05-13T03:34:47.715Z,13.31
2023-05-13T03:35:47.738Z,13.33
2023-05-13T03:36:47.654Z,13.33
2023-05-13T03:37:47.691Z,13.28
2023-05-13T03:38:47.659Z,13.23
2023-05-13T03:39:47.555Z,13.28
2023-05-13T03:40:47.521Z,13.23
2023-05-13T03:41:47.612Z,13.28
2023-05-13T03:42:47.480Z,13.37
2023-05-13T03:43:47.435Z,13.41
2023-05-13T03:44:47.433Z,13.44
2023-05-13T03:45:47.362Z,13.50
2023-05-13T03:46:47.372Z,13.60
2023-05-13T03:47:47.305Z,13.68
2023-05-13T03:48:47.269Z,13.71
2023-05-13T03:49:47.234Z,13.71
2023-05-13T03:50:47.249Z,13.92
2023-05-13T03:51:47.168Z,13.97
2023-05-13T03:52:47.414Z,14.03
2023-05-13T03:53:47.105Z,14.14
2023-05-13T03:54:47.067Z,14.14
2023-05-13T03:55:47.049Z,14.29
2023-05-13T03:56:47.084Z,14.32
2023-05-13T03:57:46.975Z,14.35
2023-05-13T03:58:46.951Z,14.43
2023-05-13T03:59:46.916Z,14.55
2023-05-13T04:00:46.980Z,14.62
2023-05-13T04:01:46.926Z,14.59
2023-05-13T04:02:46.929Z,14.62
2023-05-13T04:03:46.802Z,14.62
2023-05-13T04:04:46.784Z,14.62
2023-05-13T04:05:46.776Z,14.82
2023-05-13T04:06:46.697Z,14.81
2023-05-13T04:07:46.708Z,14.94
2023-05-13T04:08:46.701Z,14.96
2023-05-13T04:09:46.614Z,15.15
2023-05-13T04:10:46.599Z,15.67
2023-05-13T04:11:46.539Z,16.23
2023-05-13T04:12:46.521Z,16.64
2023-05-13T04:13:46.603Z,16.93
2023-05-13T04:14:46.456Z,17.30
2023-05-13T04:15:47.397Z,17.59
2023-05-13T04:16:46.464Z,17.54
2023-05-13T04:17:46.509Z,17.24
2023-05-13T04:18:46.446Z,16.99
2023-05-13T04:19:46.295Z,16.75
2023-05-13T04:20:46.274Z,16.50
2023-05-13T04:21:46.228Z,16.12
2023-05-13T04:22:46.200Z,15.77
2023-05-13T04:23:46.160Z,15.62
2023-05-13T04:24:46.189Z,15.46
2023-05-13T04:25:46.099Z,15.49
2023-05-13T04:26:46.075Z,15.43
2023-05-13T04:27:46.049Z,15.40
2023-05-13T04:28:46.019Z,15.59
2023-05-13T04:29:45.973Z,15.82
2023-05-13T04:30:46.077Z,16.01
2023-05-13T04:31:46.019Z,16.10
2023-05-13T04:32:45.916Z,16.12
2023-05-13T04:33:45.875Z,15.92
2023-05-13T04:34:45.828Z,15.90
2023-05-13T04:35:45.801Z,15.77
2023-05-13T04:36:45.836Z,15.57
2023-05-13T04:37:45.748Z,15.49
2023-05-13T04:38:45.705Z,15.36
2023-05-13T04:39:45.698Z,15.36
2023-05-13T04:40:45.729Z,15.33
2023-05-13T04:41:45.612Z,15.19
2023-05-13T04:42:45.639Z,15.02
2023-05-13T04:43:45.558Z,15.09
2023-05-13T04:44:45.536Z,15.09
2023-05-13T04:45:45.492Z,15.06
2023-05-13T04:46:45.586Z,15.04
2023-05-13T04:47:45.460Z,15.06
2023-05-13T04:48:45.466Z,15.14
2023-05-13T04:49:45.385Z,15.07
2023-05-13T04:50:45.350Z,15.04
2023-05-13T04:51:45.308Z,15.03
2023-05-13T04:52:45.325Z,14.99
2023-05-13T04:53:45.248Z,15.07
2023-05-13T04:54:45.278Z,15.09
2023-05-13T04:55:45.190Z,14.99
2023-05-13T04:56:45.157Z,15.06
2023-05-13T04:57:45.126Z,15.07
2023-05-13T04:58:45.094Z,15.07
2023-05-13T04:59:45.082Z,15.29
2023-05-13T05:00:45.117Z,15.44
2023-05-13T05:01:45.017Z,15.73
2023-05-13T05:02:45.021Z,15.95
2023-05-13T05:03:45.016Z,16.05
2023-05-13T05:04:44.914Z,16.00
2023-05-13T05:05:44.890Z,16.36
2023-05-13T05:06:44.916Z,16.79
2023-05-13T05:07:44.817Z,17.14
2023-05-13T05:08:44.792Z,17.34
2023-05-13T05:09:44.784Z,17.15
2023-05-13T05:10:44.730Z,16.90
2023-05-13T05:11:44.700Z,16.81
2023-05-13T05:12:44.728Z,16.65
2023-05-13T05:13:44.636Z,16.39
2023-05-13T05:14:44.611Z,16.50
2023-05-13T05:15:44.594Z,16.53
2023-05-13T05:16:44.578Z,16.69
2023-05-13T05:17:44.671Z,17.31
2023-05-13T05:18:44.605Z,17.82
2023-05-13T05:19:44.523Z,18.13
2023-05-13T05:20:44.452Z,18.28
2023-05-13T05:21:44.421Z,18.11
2023-05-13T05:22:44.373Z,17.72
2023-05-13T05:23:44.353Z,17.12
2023-05-13T05:24:44.364Z,16.79
2023-05-13T05:25:44.283Z,16.47
2023-05-13T05:26:44.251Z,16.46
2023-05-13T05:27:44.223Z,16.29
2023-05-13T05:28:44.206Z,16.16
2023-05-13T05:29:44.252Z,16.17
2023-05-13T05:30:44.132Z,16.05
2023-05-13T05:31:44.149Z,16.04
2023-05-13T05:32:44.095Z,16.17
2023-05-13T05:33:44.061Z,16.09
2023-05-13T05:34:44.013Z,16.04
2023-05-13T05:35:44.053Z,16.02
2023-05-13T05:36:43.961Z,16.12
2023-05-13T05:37:43.945Z,16.05
2023-05-13T05:38:43.903Z,16.05
2023-05-13T05:39:43.901Z,16.09
2023-05-13T05:40:43.852Z,16.05
2023-05-13T05:41:43.892Z,16.00
2023-05-13T05:42:43.777Z,16.09
2023-05-13T05:43:43.755Z,16.05
2023-05-13T05:44:43.722Z,16.04
2023-05-13T05:45:43.751Z,16.04
2023-05-13T05:46:43.651Z,16.04
2023-05-13T05:47:43.699Z,16.10
2023-05-13T05:48:43.607Z,16.01
2023-05-13T05:49:43.648Z,16.10
2023-05-13T05:50:43.614Z,16.16
2023-05-13T05:51:43.511Z,16.02
2023-05-13T05:52:43.499Z,16.05
2023-05-13T05:53:43.448Z,16.13
2023-05-13T05:54:43.455Z,16.17
2023-05-13T05:55:43.456Z,16.23
2023-05-13T05:56:43.356Z,16.24
2023-05-13T05:57:43.327Z,16.26
2023-05-13T05:58:43.304Z,16.26
2023-05-13T05:59:43.258Z,16.28
2023-05-13T06:00:43.245Z,16.28
2023-05-13T06:01:43.255Z,16.36
2023-05-13T06:02:43.221Z,16.33
2023-05-13T06:03:43.257Z,16.49
2023-05-13T06:04:43.313Z,16.42
2023-05-13T06:05:43.130Z,16.42
2023-05-13T06:06:43.204Z,16.50
2023-05-13T06:07:43.036Z,16.51
2023-05-13T06:08:42.990Z,16.58
2023-05-13T06:09:43.012Z,16.49
2023-05-13T06:10:42.936Z,16.53
2023-05-13T06:11:42.939Z,16.61
2023-05-13T06:12:42.961Z,16.57
2023-05-13T06:13:42.898Z,16.71
2023-05-13T06:14:42.813Z,16.78
2023-05-13T06:15:42.815Z,16.83
2023-05-13T06:16:42.767Z,16.91
2023-05-13T06:17:43.496Z,16.96
2023-05-13T06:18:42.796Z,16.99
2023-05-13T06:19:42.668Z,17.06
2023-05-13T06:20:42.649Z,17.04
2023-05-13T06:21:42.634Z,16.90
2023-05-13T06:22:43.569Z,16.97
2023-05-13T06:23:42.579Z,16.91
2023-05-13T06:24:42.593Z,16.94
2023-05-13T06:25:42.484Z,16.96
2023-05-13T06:26:42.464Z,17.12
2023-05-13T06:27:42.463Z,17.20
2023-05-13T06:28:43.927Z,17.16
2023-05-13T06:29:42.456Z,17.22
2023-05-13T06:30:42.332Z,17.27
2023-05-13T06:31:42.414Z,17.27
2023-05-13T06:32:53.526Z,17.36
2023-05-13T06:33:42.254Z,17.29
2023-05-13T06:34:42.305Z,17.36
2023-05-13T06:35:42.192Z,17.27
2023-05-13T06:36:42.164Z,17.38
2023-05-13T06:37:42.138Z,17.36
2023-05-13T06:38:42.123Z,17.41
2023-05-13T06:39:42.070Z,17.56
2023-05-13T06:40:42.098Z,17.52
2023-05-13T06:41:42.007Z,17.59
2023-05-13T06:42:41.999Z,17.72
2023-05-13T06:43:41.956Z,17.76
2023-05-13T06:44:41.920Z,17.80
2023-05-13T06:45:41.983Z,17.90
2023-05-13T06:46:41.909Z,17.89
2023-05-13T06:47:41.875Z,17.90
2023-05-13T06:48:41.810Z,18.03
2023-05-13T06:49:41.771Z,18.01
2023-05-13T06:50:41.840Z,18.08
2023-05-13T06:51:41.829Z,18.08
2023-05-13T06:52:42.119Z,18.07
2023-05-13T06:53:41.664Z,18.08
2023-05-13T06:54:41.622Z,18.08
2023-05-13T06:55:41.965Z,18.16
2023-05-13T06:56:41.621Z,18.20
2023-05-13T06:57:43.430Z,18.26
2023-05-13T06:58:41.504Z,18.33
2023-05-13T06:59:41.467Z,18.40
2023-05-13T07:00:41.466Z,18.49
2023-05-13T07:01:41.416Z,18.44
2023-05-13T07:02:41.497Z,18.47
2023-05-13T07:03:41.419Z,18.49
2023-05-13T07:04:41.342Z,18.44
2023-05-13T07:05:41.304Z,18.45
2023-05-13T07:06:41.273Z,18.50
2023-05-13T07:07:41.304Z,18.58
2023-05-13T07:08:41.230Z,18.65
2023-05-13T07:09:41.181Z,18.68
2023-05-13T07:10:41.149Z,18.74
2023-05-13T07:11:41.122Z,18.66
2023-05-13T07:12:41.093Z,18.65
2023-05-13T07:13:41.124Z,18.65
2023-05-13T07:14:41.030Z,18.60
2023-05-13T07:15:41.016Z,18.60
2023-05-13T07:16:41.003Z,18.65
2023-05-13T07:17:41.165Z,18.65
2023-05-13T07:18:40.970Z,18.58
2023-05-13T07:19:40.928Z,18.66
2023-05-13T07:20:40.852Z,18.68
2023-05-13T07:21:40.825Z,18.62
2023-05-13T07:22:40.799Z,18.74
2023-05-13T07:23:41.993Z,18.78
2023-05-13T07:24:40.736Z,18.88
2023-05-13T07:25:40.761Z,18.80
2023-05-13T07:26:40.670Z,18.80
2023-05-13T07:27:40.646Z,18.90
2023-05-13T07:28:40.619Z,19.04
2023-05-13T07:29:40.593Z,18.93
2023-05-13T07:30:40.573Z,18.98
2023-05-13T07:31:40.592Z,19.00
2023-05-13T07:32:40.579Z,18.95
2023-05-13T07:33:40.475Z,18.96
2023-05-13T07:34:40.456Z,18.92
2023-05-13T07:35:40.411Z,18.86
2023-05-13T07:36:40.396Z,18.88
2023-05-13T07:37:40.541Z,18.96
2023-05-13T07:38:40.328Z,19.00
2023-05-13T07:39:40.298Z,18.98
2023-05-13T07:40:40.321Z,18.98
2023-05-13T07:41:40.251Z,19.02
2023-05-13T07:42:40.212Z,19.12
2023-05-13T07:43:40.246Z,19.16
2023-05-13T07:44:40.211Z,19.29
2023-05-13T07:45:40.155Z,19.31
2023-05-13T07:46:40.107Z,19.19
2023-05-13T07:47:41.049Z,19.37
2023-05-13T07:48:40.035Z,19.45
2023-05-13T07:49:40.129Z,19.40
2023-05-13T07:50:39.983Z,19.45
2023-05-13T07:51:39.958Z,19.52
2023-05-13T07:52:39.924Z,19.64
2023-05-13T07:53:40.019Z,19.63
2023-05-13T07:54:39.879Z,19.69
2023-05-13T07:55:39.905Z,19.69
2023-05-13T07:56:39.801Z,19.64
2023-05-13T07:57:39.777Z,19.79
2023-05-13T07:58:39.754Z,19.70
2023-05-13T07:59:39.720Z,19.73
2023-05-13T08:00:39.750Z,19.81
2023-05-13T08:01:39.674Z,19.86
2023-05-13T08:02:39.707Z,19.86
2023-05-13T08:03:39.828Z,19.81
2023-05-13T08:04:39.616Z,19.74
2023-05-13T08:05:39.629Z,19.69
2023-05-13T08:06:40.234Z,19.74
2023-05-13T08:07:39.495Z,19.74
2023-05-13T08:08:39.476Z,19.76
2023-05-13T08:09:39.454Z,19.64
2023-05-13T08:10:39.424Z,19.76
2023-05-13T08:11:39.478Z,19.74
2023-05-13T08:12:39.347Z,19.85
2023-05-13T08:13:39.337Z,19.84
2023-05-13T08:14:39.292Z,19.92
2023-05-13T08:15:39.257Z,19.92
2023-05-13T08:16:39.346Z,19.95
2023-05-13T08:17:39.284Z,19.95
2023-05-13T08:18:39.208Z,19.92
2023-05-13T08:19:39.158Z,19.91
2023-05-13T08:20:39.127Z,19.95
2023-05-13T08:21:39.143Z,20.14
2023-05-13T08:22:39.078Z,20.13
2023-05-13T08:23:45.375Z,20.13
2023-05-13T08:24:39.008Z,20.04
2023-05-13T08:25:38.974Z,19.89
2023-05-13T08:26:39.004Z,19.95
2023-05-13T08:27:38.925Z,19.94
2023-05-13T08:28:38.926Z,19.86
2023-05-13T08:29:38.869Z,19.88
2023-05-13T08:30:38.837Z,19.92
2023-05-13T08:31:38.857Z,19.84
2023-05-13T08:32:38.947Z,19.85
2023-05-13T08:33:38.740Z,19.88
2023-05-13T08:34:38.724Z,19.92
2023-05-13T08:35:38.712Z,20.04
2023-05-13T08:36:38.659Z,20.09
2023-05-13T08:37:41.473Z,20.13
2023-05-13T08:38:38.676Z,20.09
2023-05-13T08:39:38.581Z,20.11
2023-05-13T08:40:38.551Z,20.13
2023-05-13T08:41:38.533Z,20.07
2023-05-13T08:42:38.503Z,20.14
2023-05-13T08:43:38.520Z,20.04
2023-05-13T08:44:38.430Z,19.89
2023-05-13T08:45:38.446Z,19.85
2023-05-13T08:46:38.557Z,19.86
2023-05-13T08:47:38.523Z,19.77
2023-05-13T08:48:38.392Z,19.74
2023-05-13T08:49:38.302Z,19.76
2023-05-13T08:50:38.262Z,19.77
2023-05-13T08:51:38.280Z,19.89
2023-05-13T08:52:38.234Z,19.88
2023-05-13T08:53:38.328Z,19.94
2023-05-13T08:54:38.248Z,19.95
2023-05-13T08:55:38.225Z,20.14
2023-05-13T08:56:38.096Z,20.11
2023-05-13T08:57:38.100Z,20.16
2023-05-13T08:58:38.057Z,20.22
2023-05-13T08:59:38.019Z,20.24
2023-05-13T09:00:37.983Z,20.31
2023-05-13T09:01:38.035Z,20.26
2023-05-13T09:02:37.991Z,20.31
2023-05-13T09:03:37.904Z,20.28
2023-05-13T09:04:37.935Z,20.41
2023-05-13T09:05:38.963Z,20.40
2023-05-13T09:06:38.020Z,20.37
2023-05-13T09:07:37.800Z,20.39
2023-05-13T09:08:37.775Z,20.25
2023-05-13T09:09:37.740Z,20.32
2023-05-13T09:10:37.735Z,20.32
2023-05-13T09:11:37.683Z,20.28
2023-05-13T09:12:37.707Z,20.21
2023-05-13T09:13:37.620Z,20.09
2023-05-13T09:14:37.602Z,20.21
2023-05-13T09:15:37.606Z,20.34
2023-05-13T09:16:37.575Z,20.29
2023-05-13T09:17:37.538Z,20.29
2023-05-13T09:18:37.660Z,20.29
2023-05-13T09:19:37.662Z,20.36
2023-05-13T09:20:37.431Z,20.29
2023-05-13T09:21:37.413Z,20.22
2023-05-13T09:22:37.372Z,20.28
2023-05-13T09:23:37.344Z,20.40
2023-05-13T09:24:37.375Z,20.47
2023-05-13T09:25:37.284Z,20.43
2023-05-13T09:26:37.250Z,20.52
2023-05-13T09:27:37.228Z,20.58
2023-05-13T09:28:37.273Z,20.59
2023-05-13T09:29:37.171Z,20.52
2023-05-13T09:30:37.142Z,20.63
2023-05-13T09:31:37.217Z,20.58
2023-05-13T09:32:37.150Z,20.58
2023-05-13T09:33:37.122Z,20.62
2023-05-13T09:34:37.026Z,20.58
2023-05-13T09:35:37.018Z,20.67
2023-05-13T09:36:36.989Z,20.62
2023-05-13T09:37:36.956Z,20.74
2023-05-13T09:38:36.977Z,20.63
2023-05-13T09:39:36.889Z,20.70
2023-05-13T09:40:36.880Z,20.70
2023-05-13T09:41:36.840Z,20.78
2023-05-13T09:42:36.800Z,20.84
2023-05-13T09:43:36.835Z,20.85
2023-05-13T09:44:36.757Z,20.96
2023-05-13T09:45:36.730Z,20.95
2023-05-13T09:46:36.750Z,20.88
2023-05-13T09:47:36.708Z,20.96
2023-05-13T09:48:36.701Z,20.85
2023-05-13T09:49:36.622Z,20.93
2023-05-13T09:50:36.650Z,20.96
2023-05-13T09:51:36.563Z,21.06
2023-05-13T09:52:36.537Z,21.03
2023-05-13T09:53:36.525Z,21.07
2023-05-13T09:54:36.530Z,21.03
2023-05-13T09:55:36.462Z,21.15
2023-05-13T09:56:36.423Z,21.25
2023-05-13T09:57:36.403Z,21.36
2023-05-13T09:58:36.371Z,21.48
2023-05-13T09:59:36.367Z,21.50
2023-05-13T10:00:38.997Z,21.52
2023-05-13T10:01:36.328Z,21.67
2023-05-13T10:02:36.297Z,21.77
2023-05-13T10:03:36.249Z,21.82
2023-05-13T10:04:36.222Z,21.75
2023-05-13T10:05:36.200Z,21.58
2023-05-13T10:06:36.324Z,21.61
2023-05-13T10:07:36.131Z,21.76
2023-05-13T10:08:36.097Z,21.75
2023-05-13T10:09:36.072Z,21.88
2023-05-13T10:10:36.065Z,21.82
2023-05-13T10:11:36.016Z,21.75
2023-05-13T10:12:36.614Z,21.70
2023-05-13T10:13:35.972Z,21.75
2023-05-13T10:14:35.943Z,21.83
2023-05-13T10:15:35.920Z,21.75
2023-05-13T10:16:35.899Z,21.72
2023-05-13T10:17:35.880Z,21.62
2023-05-13T10:18:35.927Z,21.64
2023-05-13T10:19:35.859Z,21.55
2023-05-13T10:20:35.845Z,21.58
2023-05-13T10:21:35.755Z,21.69
2023-05-13T10:22:35.746Z,21.75
2023-05-13T10:23:35.695Z,21.73
2023-05-13T10:24:38.017Z,21.72
2023-05-13T10:25:35.658Z,21.76
2023-05-13T10:26:35.667Z,21.77
2023-05-13T10:27:35.592Z,21.69
2023-05-13T10:28:35.575Z,21.69
2023-05-13T10:29:35.556Z,21.67
2023-05-13T10:30:35.518Z,21.51
2023-05-13T10:31:35.549Z,21.50
2023-05-13T10:32:35.570Z,21.61
2023-05-13T10:33:35.420Z,21.58
2023-05-13T10:34:35.406Z,21.60
2023-05-13T10:35:38.078Z,21.61
2023-05-13T10:36:35.367Z,21.61
2023-05-13T10:37:35.322Z,21.58
2023-05-13T10:38:35.348Z,21.60
2023-05-13T10:39:35.268Z,21.57
2023-05-13T10:40:35.247Z,21.62
2023-05-13T10:41:35.225Z,21.64
2023-05-13T10:42:35.187Z,21.69
2023-05-13T10:43:35.206Z,21.72
2023-05-13T10:44:35.131Z,21.73
2023-05-13T10:45:35.119Z,21.80
2023-05-13T10:46:35.124Z,21.91
2023-05-13T10:47:35.129Z,21.98
2023-05-13T10:48:35.089Z,22.06
2023-05-13T10:49:35.079Z,22.13
2023-05-13T10:50:34.972Z,22.17
2023-05-13T10:51:34.957Z,22.11
2023-05-13T10:52:34.920Z,22.02
2023-05-13T10:53:34.892Z,22.17
2023-05-13T10:54:34.863Z,22.13
2023-05-13T10:55:34.892Z,22.10
2023-05-13T10:56:34.812Z,22.22
2023-05-13T10:57:34.784Z,22.26
2023-05-13T10:58:34.755Z,22.22
2023-05-13T10:59:34.725Z,22.26
2023-05-13T11:00:34.710Z,22.43
2023-05-13T11:01:34.771Z,22.47
2023-05-13T11:02:34.762Z,22.50
2023-05-13T11:03:34.745Z,22.57
2023-05-13T11:04:34.597Z,22.68
2023-05-13T11:05:34.576Z,22.75
2023-05-13T11:06:34.609Z,22.84
2023-05-13T11:07:34.580Z,22.94
2023-05-13T11:08:34.497Z,22.93
2023-05-13T11:09:34.473Z,22.98
2023-05-13T11:10:35.141Z,22.88
2023-05-13T11:11:34.439Z,22.84
2023-05-13T11:12:34.397Z,22.62
2023-05-13T11:13:34.444Z,22.44
2023-05-13T11:14:34.345Z,22.18
2023-05-13T11:15:34.315Z,22.15
2023-05-13T11:16:34.325Z,22.29
2023-05-13T11:17:34.301Z,22.14
2023-05-13T11:18:34.306Z,22.32
2023-05-13T11:19:34.294Z,22.35
2023-05-13T11:20:48.671Z,22.41
2023-05-13T11:21:34.165Z,22.50
2023-05-13T11:22:34.159Z,22.50
2023-05-13T11:23:34.146Z,22.65
2023-05-13T11:24:34.086Z,22.66
2023-05-13T11:25:34.109Z,22.81
2023-05-13T11:26:34.028Z,22.65
2023-05-13T11:27:34.011Z,22.68
2023-05-13T11:28:33.989Z,22.59
2023-05-13T11:29:33.968Z,22.45
2023-05-13T11:30:33.922Z,22.45
2023-05-13T11:31:34.070Z,22.47
2023-05-13T11:32:33.916Z,22.41
2023-05-13T11:33:33.848Z,22.36
2023-05-13T11:34:33.856Z,22.22
2023-05-13T11:35:33.805Z,22.22
2023-05-13T11:36:33.791Z,22.20
2023-05-13T11:37:33.803Z,22.17
2023-05-13T11:38:33.725Z,22.22
2023-05-13T11:39:33.689Z,22.36
2023-05-13T11:40:33.667Z,22.29
2023-05-13T11:41:33.641Z,22.35
2023-05-13T11:42:33.623Z,22.45
2023-05-13T11:43:34.832Z,22.47
2023-05-13T11:44:33.561Z,22.44
2023-05-13T11:45:33.623Z,22.50
2023-05-13T11:46:33.517Z,22.59
2023-05-13T11:47:33.588Z,22.70
2023-05-13T11:48:33.529Z,22.65
2023-05-13T11:49:34.037Z,22.54
2023-05-13T11:50:34.142Z,22.57
2023-05-13T11:51:33.379Z,22.50
2023-05-13T11:52:33.350Z,22.54
2023-05-13T11:53:33.389Z,22.48
2023-05-13T11:54:33.308Z,22.45
2023-05-13T11:55:33.275Z,22.38
2023-05-13T11:56:33.249Z,22.43
2023-05-13T11:57:33.229Z,22.39
2023-05-13T11:58:33.269Z,22.41
2023-05-13T11:59:41.676Z,22.47
2023-05-13T12:00:33.147Z,22.43
2023-05-13T12:01:33.112Z,22.48
2023-05-13T12:02:33.192Z,22.39
2023-05-13T12:03:33.150Z,22.13
2023-05-13T12:04:33.043Z,22.06
2023-05-13T12:05:33.061Z,22.22
2023-05-13T12:06:32.978Z,22.25
2023-05-13T12:07:32.964Z,22.29
2023-05-13T12:08:32.930Z,22.36
2023-05-13T12:09:32.954Z,22.44
2023-05-13T12:10:32.885Z,22.43
2023-05-13T12:11:32.945Z,22.47
2023-05-13T12:12:32.830Z,22.51
2023-05-13T12:13:32.794Z,22.70
2023-05-13T12:14:32.774Z,22.69
2023-05-13T12:15:33.218Z,22.62
2023-05-13T12:16:32.865Z,22.66
2023-05-13T12:17:32.729Z,22.76
2023-05-13T12:18:32.705Z,22.87
2023-05-13T12:19:32.652Z,23.06
2023-05-13T12:20:32.618Z,23.03
2023-05-13T12:21:32.661Z,23.13
2023-05-13T12:22:32.569Z,23.28
2023-05-13T12:23:32.533Z,23.47
2023-05-13T12:24:32.528Z,23.58
2023-05-13T12:25:33.563Z,23.54
2023-05-13T12:26:32.465Z,23.48
2023-05-13T12:27:32.501Z,23.47
2023-05-13T12:28:32.414Z,23.34
2023-05-13T12:29:32.387Z,23.40
2023-05-13T12:30:32.364Z,23.40
2023-05-13T12:31:32.409Z,23.50
2023-05-13T12:32:32.328Z,23.59
2023-05-13T12:33:32.335Z,23.59
2023-05-13T12:34:32.263Z,23.63
2023-05-13T12:35:32.232Z,23.71
2023-05-13T12:36:33.092Z,23.76
2023-05-13T12:37:32.181Z,23.86
2023-05-13T12:38:32.155Z,23.91
2023-05-13T12:39:32.175Z,24.01
2023-05-13T12:40:32.665Z,24.03
2023-05-13T12:41:32.114Z,24.06
2023-05-13T12:42:32.068Z,24.16
2023-05-13T12:43:32.025Z,24.02
2023-05-13T12:44:32.013Z,24.06
2023-05-13T12:45:32.078Z,24.01
2023-05-13T12:46:31.990Z,23.99
2023-05-13T12:47:31.942Z,23.88
2023-05-13T12:48:31.919Z,23.92
2023-05-13T12:49:31.887Z,23.95
2023-05-13T12:50:31.856Z,23.92
2023-05-13T12:51:31.884Z,24.03
2023-05-13T12:52:31.797Z,23.95